Oskaloosa, IA

8:58 AM CST on January 21, 2018 (GMT -0600)
Oskaloosa Municipal

Weather History for KOOA - March, 2013

Change the Weather History Date:

Sunday, March 10, 2013

  Actual Average (KOTM) Record (KOTM)
Temperature  
Mean Temperature 38 °F -  
Max Temperature 44 °F 47 °F 73 °F (1917)
Min Temperature 32 °F 26 °F -12 °F (1934)
Degree Days  
Heating Degree Days 27    
Moisture  
Dew Point 36 °F    
Average Humidity 95    
Maximum Humidity 98    
Minimum Humidity 93    
Precipitation  
Precipitation 0.40 in - - ()
Sea Level Pressure  
Sea Level Pressure 29.66 in    
Wind  
Wind Speed 8 mph (NNW)    
Max Wind Speed 14 mph    
Max Gust Speed -    
Visibility 3 miles    
Events Fog , Rain , Snow    
Averages and records for this station are not official NWS values.
T = Trace of Precipitation, MM = Missing Value Source: NWS Daily Summary

Daily Weather History Graph

Daily Weather History Graph

Search for Another Location

Airport or City:

Trip Planner

Search our weather history database for the weather conditions in past years. The results will help you decide how hot, cold, wet, or windy it might be!

Date:

Astronomy

Mar. 10, 2013 Rise Set
Actual Time 7:29 AM CDT 7:11 PM CDT
Civil Twilight 7:02 AM CDT 7:38 PM CDT
Nautical Twilight 6:30 AM CDT 8:10 PM CDT
Astronomical Twilight 5:57 AM CDT 8:43 PM CDT
Moon 6:30 AM CDT (3/10) 6:19 PM CDT (3/10)
Length of Visible Light 12h 36m
Length of Day
11h 41m
Waning Crescent, 2% of the Moon is Illuminated
Mar 10
Waning Crescent
Mar 11
New
Mar 19
First Quarter
Mar 27
Full
Apr 2
Last Quarter

Hourly Weather History & Observations

Time (CDT) Temp. Windchill Dew Point Humidity Pressure Visibility Wind Dir Wind Speed Gust Speed Precip Events Conditions
12:15 AM 41.9 °F 36.3 °F 40.1 °F 93% 29.67 in 0.2 mi South 9.2 mph - 0.01 in Rain Light Rain
12:35 AM 43.0 °F 38.2 °F 41.2 °F 93% 29.68 in 0.8 mi South 8.1 mph - 0.01 in Rain Light Rain
12:55 AM 44.2 °F 38.0 °F 42.6 °F 94% 29.67 in 0.5 mi SSE 12.7 mph - 0.02 in Rain Light Rain
1:15 AM 44.6 °F 38.8 °F 43.2 °F 95% 29.66 in 0.5 mi SE 11.5 mph - N/A   Drizzle
1:35 AM 43.9 °F 38.8 °F 42.4 °F 95% 29.67 in 0.2 mi SSE 9.2 mph - N/A Rain Light Rain
1:55 AM 43.3 °F 39.2 °F 41.7 °F 94% 29.67 in 0.5 mi SSW 6.9 mph - N/A Rain Light Rain
3:15 AM 44.1 °F 39.0 °F 42.8 °F 95% 29.64 in 0.8 mi SSE 9.2 mph - N/A   Light Drizzle
3:35 AM 44.1 °F 40.8 °F 42.6 °F 95% 29.62 in 0.2 mi SE 5.8 mph - N/A Fog Fog
3:55 AM 41.2 °F 36.6 °F 39.7 °F 95% 29.61 in 0.2 mi East 6.9 mph - N/A Fog Fog
4:15 AM 41.4 °F 39.4 °F 39.9 °F 95% 29.62 in 0.2 mi SE 3.5 mph - N/A Fog Fog
4:35 AM 40.1 °F 36.1 °F 38.5 °F 94% 29.63 in 0.2 mi South 5.8 mph - N/A Fog Fog
4:55 AM 39.2 °F 35.0 °F 37.6 °F 94% 29.63 in 0.2 mi South 5.8 mph - N/A   Drizzle
5:15 AM 41.9 °F 35.4 °F 40.5 °F 95% 29.65 in 0.5 mi South 11.5 mph - N/A Rain Light Rain
5:35 AM 41.9 °F 35.9 °F 40.5 °F 95% 29.64 in 0.5 mi South 10.4 mph - N/A Fog Fog
5:55 AM 42.4 °F 37.0 °F 41.0 °F 95% 29.64 in 0.8 mi South 9.2 mph - N/A   Overcast
6:15 AM 41.5 °F 37.8 °F 40.1 °F 95% 29.63 in 0.2 mi South 5.8 mph - N/A Fog Fog
7:15 AM 41.0 °F 37.1 °F 39.6 °F 95% 29.68 in 0.2 mi SSW 5.8 mph - N/A Fog Fog
7:35 AM 40.3 °F - 38.8 °F 95% 29.67 in 0.2 mi Calm Calm - N/A Fog Fog
7:55 AM 38.8 °F - 37.4 °F 95% 29.67 in 0.2 mi Calm Calm - N/A Fog Fog
8:15 AM 37.8 °F 35.3 °F 36.5 °F 95% 29.66 in 0.2 mi ENE 3.5 mph - N/A Snow Light Snow
8:35 AM 38.1 °F - 36.7 °F 95% 29.66 in 0.2 mi Calm Calm - 0.01 in Rain Light Rain
8:55 AM 37.9 °F 34.4 °F 36.5 °F 95% 29.68 in 0.2 mi NW 4.6 mph - 0.01 in Fog Fog
9:15 AM 37.0 °F - 35.8 °F 95% 29.70 in 0.2 mi Calm Calm - N/A Rain Light Rain
9:35 AM 36.5 °F 30.3 °F 35.1 °F 95% 29.71 in 0.2 mi WNW 8.1 mph - N/A Rain Light Rain
9:55 AM 36.1 °F 31.4 °F 34.9 °F 95% 29.70 in 0.5 mi NW 5.8 mph - 0.02 in Rain Rain
10:15 AM 36.5 °F 30.3 °F 35.1 °F 95% 29.68 in 0.8 mi North 8.1 mph - 0.01 in Rain Light Rain
10:35 AM 36.5 °F 29.7 °F 35.1 °F 95% 29.67 in 1.0 mi North 9.2 mph - 0.01 in   Overcast
10:55 AM 36.5 °F 31.0 °F 35.2 °F 95% 29.70 in 1.2 mi NNW 6.9 mph - 0.01 in   Overcast
11:15 AM 36.5 °F 30.3 °F 35.1 °F 95% 29.71 in 1.8 mi NNW 8.1 mph - N/A   Overcast
11:35 AM 36.3 °F 30.8 °F 34.9 °F 95% 29.72 in 2.0 mi North 6.9 mph - N/A Rain Rain
11:55 AM 36.5 °F 28.2 °F 35.2 °F 95% 29.68 in 2.0 mi NNE 12.7 mph - 0.02 in Rain Light Rain
12:35 PM 36.9 °F 29.1 °F 35.6 °F 95% 29.68 in 3.0 mi North 11.5 mph - N/A   Overcast
12:55 PM 36.7 °F 29.9 °F 35.6 °F 96% 29.67 in 2.0 mi North 9.2 mph - N/A   Overcast
1:15 PM 36.5 °F 29.7 °F 35.2 °F 95% 29.67 in 1.5 mi North 9.2 mph - N/A Rain Light Rain
1:35 PM 36.5 °F 29.2 °F 35.2 °F 95% 29.67 in 2.0 mi North 10.4 mph - 0.01 in Rain Rain
1:55 PM 36.5 °F 28.2 °F 35.2 °F 95% 29.65 in 2.5 mi NNE 12.7 mph - 0.03 in Rain Light Rain
2:15 PM 36.7 °F 28.0 °F 35.6 °F 96% 29.61 in 3.0 mi NE 13.8 mph - 0.02 in Rain Rain
2:35 PM 37.0 °F 31.0 °F 35.8 °F 95% 29.64 in 4.0 mi NE 8.1 mph - 0.02 in Rain Light Rain
2:55 PM 36.9 °F 30.7 °F 35.6 °F 95% 29.63 in 4.0 mi NNE 8.1 mph - 0.03 in Rain Rain
3:15 PM 36.7 °F 31.2 °F 35.6 °F 96% 29.61 in 4.0 mi North 6.9 mph - 0.02 in Rain Light Rain
3:35 PM 36.5 °F 32.7 °F 35.4 °F 96% 29.62 in 1.8 mi NNW 4.6 mph - 0.06 in Rain Light Rain
3:55 PM 36.5 °F 31.8 °F 35.2 °F 95% 29.64 in 2.5 mi WNW 5.8 mph - 0.09 in Rain Rain
4:15 PM 36.5 °F 31.0 °F 35.2 °F 95% 29.63 in 3.0 mi NNW 6.9 mph - 0.03 in Rain Rain
4:35 PM 36.5 °F 31.0 °F 35.2 °F 95% 29.63 in 2.5 mi NNE 6.9 mph - 0.07 in Rain Rain
4:55 PM 37.0 °F 32.4 °F 35.8 °F 95% 29.62 in 3.0 mi North 5.8 mph - 0.10 in Rain Light Rain
5:15 PM 37.2 °F 32.6 °F 36.0 °F 95% 29.62 in 4.0 mi North 5.8 mph - 0.02 in Rain Rain
5:35 PM 37.0 °F 31.6 °F 35.8 °F 95% 29.62 in 2.5 mi North 6.9 mph - 0.04 in Rain Rain
5:55 PM 37.4 °F 33.8 °F 36.0 °F 95% 29.62 in 4.0 mi North 4.6 mph - 0.05 in Rain Light Rain
6:15 PM 36.7 °F 29.9 °F 35.4 °F 95% 29.63 in 2.5 mi WNW 9.2 mph - N/A Rain Rain
6:35 PM 36.5 °F 30.3 °F 35.1 °F 95% 29.63 in 4.0 mi NW 8.1 mph - 0.01 in Rain Light Rain
6:55 PM 36.0 °F 29.6 °F 34.7 °F 95% 29.64 in 5.0 mi WNW 8.1 mph - 0.01 in Rain Rain
7:15 PM 35.6 °F 29.2 °F 34.5 °F 96% 29.64 in 5.0 mi NW 8.1 mph - N/A   Drizzle
7:35 PM 35.2 °F 28.1 °F 34.0 °F 95% 29.64 in 7.0 mi NW 9.2 mph - N/A   Overcast
7:55 PM 35.1 °F 28.6 °F 33.8 °F 95% 29.65 in 7.0 mi WNW 8.1 mph - N/A   Overcast
8:15 PM 34.7 °F 28.1 °F 33.4 °F 95% 29.65 in 7.0 mi NW 8.1 mph - 0.01 in   Overcast
8:35 PM 34.5 °F 28.6 °F 33.1 °F 94% 29.66 in 10.0 mi NW 6.9 mph - 0.01 in   Overcast
9:15 PM 33.8 °F 26.4 °F 32.5 °F 95% 29.67 in 7.0 mi NW 9.2 mph - N/A   Drizzle
9:35 PM 33.4 °F 25.9 °F 32.4 °F 96% 29.67 in 10.0 mi NNW 9.2 mph - N/A   Overcast
9:55 PM 33.3 °F 27.1 °F 32.2 °F 96% 29.67 in 10.0 mi NW 6.9 mph - N/A   Overcast
10:15 PM 33.1 °F 26.1 °F 32.0 °F 96% 29.67 in 10.0 mi NW 8.1 mph - N/A   Overcast
10:35 PM 32.9 °F 25.3 °F 32.0 °F 96% 29.67 in 7.0 mi NW 9.2 mph - N/A   Overcast
10:55 PM 32.9 °F 25.3 °F 32.0 °F 96% 29.67 in 10.0 mi NNW 9.2 mph - N/A   Overcast
11:15 PM 32.9 °F 25.3 °F 32.0 °F 96% 29.68 in 7.0 mi NW 9.2 mph - N/A   Overcast
11:35 PM 32.9 °F 25.3 °F 32.0 °F 96% 29.68 in 7.0 mi NW 9.2 mph - N/A   Overcast
12:15 AM 32.9 °F 25.3 °F 32.0 °F 96% 29.68 in 4.0 mi NW 9.2 mph - N/A   Overcast
12:35 AM 32.5 °F 26.2 °F 32.0 °F 98% 29.68 in 2.0 mi NW 6.9 mph - N/A   Overcast
12:55 AM 32.5 °F 25.5 °F 32.0 °F 98% 29.67 in 1.8 mi NW 8.1 mph - N/A   Overcast